sensor_id;sensor_type;location;lat;lon;timestamp;temperature;humidity
51733;DHT22;39139;53.144;6.244;2022-12-15T00:02:30;-2.40;99.90
51733;DHT22;39139;53.144;6.244;2022-12-15T00:05:15;-2.40;99.90
51733;DHT22;39139;53.144;6.244;2022-12-15T00:08:09;-2.60;99.90
51733;DHT22;39139;53.144;6.244;2022-12-15T00:10:55;-2.60;99.90
51733;DHT22;39139;53.144;6.244;2022-12-15T00:13:39;-2.60;99.90
51733;DHT22;39139;53.144;6.244;2022-12-15T00:16:23;-2.60;99.90
51733;DHT22;39139;53.144;6.244;2022-12-15T00:19:08;-2.80;99.90
51733;DHT22;39139;53.144;6.244;2022-12-15T00:21:52;-2.70;99.90
51733;DHT22;39139;53.144;6.244;2022-12-15T00:24:37;-2.70;99.90
51733;DHT22;39139;53.144;6.244;2022-12-15T00:27:21;-3.00;99.90
51733;DHT22;39139;53.144;6.244;2022-12-15T00:30:06;-3.00;99.90
51733;DHT22;39139;53.144;6.244;2022-12-15T00:32:51;-3.10;99.90
51733;DHT22;39139;53.144;6.244;2022-12-15T00:35:35;-3.10;99.90
51733;DHT22;39139;53.144;6.244;2022-12-15T00:38:20;-3.40;99.90
51733;DHT22;39139;53.144;6.244;2022-12-15T00:41:04;-3.10;99.90
51733;DHT22;39139;53.144;6.244;2022-12-15T00:43:31;-3.50;99.90
51733;DHT22;39139;53.144;6.244;2022-12-15T00:48:44;-3.20;99.90
51733;DHT22;39139;53.144;6.244;2022-12-15T00:51:10;-3.20;99.90
51733;DHT22;39139;53.144;6.244;2022-12-15T00:53:36;-3.20;99.90
51733;DHT22;39139;53.144;6.244;2022-12-15T00:56:20;-3.50;99.90
51733;DHT22;39139;53.144;6.244;2022-12-15T00:59:05;-3.40;99.90
51733;DHT22;39139;53.144;6.244;2022-12-15T01:12:51;-3.00;99.90
51733;DHT22;39139;53.144;6.244;2022-12-15T01:15:36;-3.10;99.90
51733;DHT22;39139;53.144;6.244;2022-12-15T01:18:20;-3.00;99.90
51733;DHT22;39139;53.144;6.244;2022-12-15T01:21:06;-2.90;99.90
51733;DHT22;39139;53.144;6.244;2022-12-15T01:23:36;-2.70;99.90
51733;DHT22;39139;53.144;6.244;2022-12-15T01:26:03;-3.20;99.90
51733;DHT22;39139;53.144;6.244;2022-12-15T01:28:29;-2.80;99.90
51733;DHT22;39139;53.144;6.244;2022-12-15T01:30:55;-2.90;99.90
51733;DHT22;39139;53.144;6.244;2022-12-15T01:36:03;-3.00;99.90
51733;DHT22;39139;53.144;6.244;2022-12-15T01:38:29;-2.90;99.90
51733;DHT22;39139;53.144;6.244;2022-12-15T01:41:06;-2.80;99.90
51733;DHT22;39139;53.144;6.244;2022-12-15T01:43:34;-3.10;99.90
51733;DHT22;39139;53.144;6.244;2022-12-15T01:46:04;-3.00;99.90
51733;DHT22;39139;53.144;6.244;2022-12-15T01:48:47;-3.10;99.90
51733;DHT22;39139;53.144;6.244;2022-12-15T01:56:46;-3.60;99.90
51733;DHT22;39139;53.144;6.244;2022-12-15T02:04:07;-3.40;99.90
51733;DHT22;39139;53.144;6.244;2022-12-15T02:06:34;-3.50;99.90
51733;DHT22;39139;53.144;6.244;2022-12-15T02:09:00;-3.70;99.90
51733;DHT22;39139;53.144;6.244;2022-12-15T02:11:37;-3.40;99.90
51733;DHT22;39139;53.144;6.244;2022-12-15T02:14:10;-3.70;99.90
51733;DHT22;39139;53.144;6.244;2022-12-15T02:23:04;-3.40;99.90
51733;DHT22;39139;53.144;6.244;2022-12-15T02:25:32;-3.50;99.90
51733;DHT22;39139;53.144;6.244;2022-12-15T02:31:27;-2.90;99.90
51733;DHT22;39139;53.144;6.244;2022-12-15T02:34:37;-2.80;99.90
51733;DHT22;39139;53.144;6.244;2022-12-15T02:37:12;-2.90;99.90
51733;DHT22;39139;53.144;6.244;2022-12-15T02:39:39;-2.80;99.90
51733;DHT22;39139;53.144;6.244;2022-12-15T02:42:05;-2.60;99.90
51733;DHT22;39139;53.144;6.244;2022-12-15T03:03:47;-2.90;99.90
51733;DHT22;39139;53.144;6.244;2022-12-15T03:11:07;-3.10;99.90
51733;DHT22;39139;53.144;6.244;2022-12-15T03:13:33;-3.00;99.90
51733;DHT22;39139;53.144;6.244;2022-12-15T03:15:59;-3.00;99.90
51733;DHT22;39139;53.144;6.244;2022-12-15T03:18:25;-3.00;99.90
51733;DHT22;39139;53.144;6.244;2022-12-15T03:33:07;-3.00;99.90
51733;DHT22;39139;53.144;6.244;2022-12-15T03:40:27;-3.00;99.90
51733;DHT22;39139;53.144;6.244;2022-12-15T03:50:17;-3.00;99.90
51733;DHT22;39139;53.144;6.244;2022-12-15T04:09:52;-2.60;99.90
51733;DHT22;39139;53.144;6.244;2022-12-15T04:12:17;-2.30;99.90
51733;DHT22;39139;53.144;6.244;2022-12-15T08:46:44;-1.50;99.90
51733;DHT22;39139;53.144;6.244;2022-12-15T08:49:10;-0.70;99.90
51733;DHT22;39139;53.144;6.244;2022-12-15T08:51:35;-0.50;99.90
51733;DHT22;39139;53.144;6.244;2022-12-15T08:54:01;-0.20;99.90
51733;DHT22;39139;53.144;6.244;2022-12-15T08:56:27;0.00;99.90
51733;DHT22;39139;53.144;6.244;2022-12-15T08:58:59;0.00;99.90
51733;DHT22;39139;53.144;6.244;2022-12-15T09:01:26;0.00;99.90
51733;DHT22;39139;53.144;6.244;2022-12-15T09:03:52;0.10;99.90
51733;DHT22;39139;53.144;6.244;2022-12-15T09:06:29;0.20;99.90
51733;DHT22;39139;53.144;6.244;2022-12-15T09:09:01;0.60;99.90
51733;DHT22;39139;53.144;6.244;2022-12-15T09:11:29;0.30;99.90
51733;DHT22;39139;53.144;6.244;2022-12-15T09:13:55;0.30;99.90
51733;DHT22;39139;53.144;6.244;2022-12-15T09:16:21;0.80;99.90
51733;DHT22;39139;53.144;6.244;2022-12-15T09:18:52;0.40;99.90
51733;DHT22;39139;53.144;6.244;2022-12-15T09:21:19;0.30;99.90
51733;DHT22;39139;53.144;6.244;2022-12-15T09:23:50;0.40;99.90
51733;DHT22;39139;53.144;6.244;2022-12-15T09:26:18;0.20;99.90
51733;DHT22;39139;53.144;6.244;2022-12-15T09:28:44;0.00;99.90
51733;DHT22;39139;53.144;6.244;2022-12-15T09:31:12;0.00;99.90
51733;DHT22;39139;53.144;6.244;2022-12-15T09:33:40;0.20;99.90
51733;DHT22;39139;53.144;6.244;2022-12-15T09:36:06;1.40;99.90
51733;DHT22;39139;53.144;6.244;2022-12-15T09:38:36;0.60;99.90
51733;DHT22;39139;53.144;6.244;2022-12-15T09:43:33;1.40;99.90
51733;DHT22;39139;53.144;6.244;2022-12-15T09:46:22;1.70;99.90
51733;DHT22;39139;53.144;6.244;2022-12-15T09:48:49;1.90;99.90
51733;DHT22;39139;53.144;6.244;2022-12-15T09:51:17;2.10;99.90
51733;DHT22;39139;53.144;6.244;2022-12-15T09:53:43;2.40;99.90
51733;DHT22;39139;53.144;6.244;2022-12-15T09:56:17;2.30;99.90
51733;DHT22;39139;53.144;6.244;2022-12-15T10:01:32;2.40;99.90
51733;DHT22;39139;53.144;6.244;2022-12-15T10:06:43;2.60;99.90
51733;DHT22;39139;53.144;6.244;2022-12-15T10:09:18;2.90;99.90
51733;DHT22;39139;53.144;6.244;2022-12-15T10:11:55;3.20;99.90
51733;DHT22;39139;53.144;6.244;2022-12-15T10:17:21;3.80;99.90
51733;DHT22;39139;53.144;6.244;2022-12-15T10:22:20;4.00;99.90
51733;DHT22;39139;53.144;6.244;2022-12-15T10:24:46;4.50;99.90
51733;DHT22;39139;53.144;6.244;2022-12-15T10:27:31;4.20;99.90
51733;DHT22;39139;53.144;6.244;2022-12-15T10:30:11;4.60;99.90
51733;DHT22;39139;53.144;6.244;2022-12-15T10:35:17;5.40;99.90
51733;DHT22;39139;53.144;6.244;2022-12-15T10:37:45;5.40;99.90
51733;DHT22;39139;53.144;6.244;2022-12-15T10:40:17;5.70;99.90
51733;DHT22;39139;53.144;6.244;2022-12-15T10:42:48;6.30;99.90
51733;DHT22;39139;53.144;6.244;2022-12-15T10:45:58;7.20;99.90
51733;DHT22;39139;53.144;6.244;2022-12-15T10:48:24;7.40;99.90
51733;DHT22;39139;53.144;6.244;2022-12-15T10:50:49;7.20;99.90
51733;DHT22;39139;53.144;6.244;2022-12-15T10:56:05;8.50;99.90
51733;DHT22;39139;53.144;6.244;2022-12-15T10:58:45;7.60;99.90
51733;DHT22;39139;53.144;6.244;2022-12-15T11:01:37;7.50;99.90
51733;DHT22;39139;53.144;6.244;2022-12-15T11:04:03;7.40;99.90
51733;DHT22;39139;53.144;6.244;2022-12-15T11:06:32;8.00;99.90
51733;DHT22;39139;53.144;6.244;2022-12-15T11:11:46;7.90;99.90
51733;DHT22;39139;53.144;6.244;2022-12-15T11:14:47;7.90;99.90
51733;DHT22;39139;53.144;6.244;2022-12-15T11:17:18;7.70;99.90
51733;DHT22;39139;53.144;6.244;2022-12-15T11:19:52;8.20;99.90
51733;DHT22;39139;53.144;6.244;2022-12-15T11:22:42;8.00;99.90
51733;DHT22;39139;53.144;6.244;2022-12-15T11:27:42;7.40;99.90
51733;DHT22;39139;53.144;6.244;2022-12-15T11:30:20;7.20;99.90
51733;DHT22;39139;53.144;6.244;2022-12-15T11:32:52;7.10;99.90
51733;DHT22;39139;53.144;6.244;2022-12-15T11:35:32;6.80;99.90
51733;DHT22;39139;53.144;6.244;2022-12-15T11:40:43;7.40;99.90
51733;DHT22;39139;53.144;6.244;2022-12-15T11:46:20;7.30;99.90
51733;DHT22;39139;53.144;6.244;2022-12-15T11:54:45;7.00;99.90
51733;DHT22;39139;53.144;6.244;2022-12-15T12:00:12;7.00;99.90
51733;DHT22;39139;53.144;6.244;2022-12-15T12:02:48;6.40;99.90
51733;DHT22;39139;53.144;6.244;2022-12-15T12:05:33;6.20;99.90
51733;DHT22;39139;53.144;6.244;2022-12-15T12:08:32;6.10;99.90
51733;DHT22;39139;53.144;6.244;2022-12-15T12:19:30;5.50;99.90
51733;DHT22;39139;53.144;6.244;2022-12-15T12:22:01;5.60;99.90
51733;DHT22;39139;53.144;6.244;2022-12-15T12:24:29;6.40;99.90
51733;DHT22;39139;53.144;6.244;2022-12-15T12:27:03;5.80;99.90
51733;DHT22;39139;53.144;6.244;2022-12-15T12:29:45;5.80;99.90
51733;DHT22;39139;53.144;6.244;2022-12-15T12:35:01;6.00;99.90
51733;DHT22;39139;53.144;6.244;2022-12-15T12:37:37;6.00;99.90
51733;DHT22;39139;53.144;6.244;2022-12-15T12:43:01;5.80;99.90
51733;DHT22;39139;53.144;6.244;2022-12-15T12:50:51;5.90;99.90
51733;DHT22;39139;53.144;6.244;2022-12-15T12:53:33;6.00;99.90
51733;DHT22;39139;53.144;6.244;2022-12-15T12:55:59;5.70;99.90
51733;DHT22;39139;53.144;6.244;2022-12-15T12:58:33;5.60;99.90
51733;DHT22;39139;53.144;6.244;2022-12-15T13:03:39;5.50;99.90
51733;DHT22;39139;53.144;6.244;2022-12-15T13:08:51;5.20;99.90
51733;DHT22;39139;53.144;6.244;2022-12-15T13:22:33;5.00;99.90
51733;DHT22;39139;53.144;6.244;2022-12-15T13:25:01;4.80;99.90
51733;DHT22;39139;53.144;6.244;2022-12-15T13:27:35;4.60;99.90
51733;DHT22;39139;53.144;6.244;2022-12-15T13:32:46;4.30;99.90
51733;DHT22;39139;53.144;6.244;2022-12-15T13:35:25;4.70;99.90
51733;DHT22;39139;53.144;6.244;2022-12-15T13:37:56;3.90;99.90
51733;DHT22;39139;53.144;6.244;2022-12-15T13:48:24;4.00;99.90
51733;DHT22;39139;53.144;6.244;2022-12-15T13:51:00;3.90;99.90
51733;DHT22;39139;53.144;6.244;2022-12-15T13:53:37;4.10;99.90
51733;DHT22;39139;53.144;6.244;2022-12-15T13:59:41;3.80;99.90
51733;DHT22;39139;53.144;6.244;2022-12-15T14:02:25;3.90;99.90
51733;DHT22;39139;53.144;6.244;2022-12-15T14:07:35;4.00;99.90
51733;DHT22;39139;53.144;6.244;2022-12-15T14:10:03;3.60;99.90
51733;DHT22;39139;53.144;6.244;2022-12-15T14:12:30;3.60;99.90
51733;DHT22;39139;53.144;6.244;2022-12-15T14:14:55;3.80;99.90
51733;DHT22;39139;53.144;6.244;2022-12-15T14:17:21;4.00;99.90
51733;DHT22;39139;53.144;6.244;2022-12-15T14:19:48;3.60;99.90
51733;DHT22;39139;53.144;6.244;2022-12-15T14:22:28;3.50;99.90
51733;DHT22;39139;53.144;6.244;2022-12-15T14:27:38;3.30;99.90
51733;DHT22;39139;53.144;6.244;2022-12-15T14:30:31;3.40;99.90
51733;DHT22;39139;53.144;6.244;2022-12-15T14:33:01;3.70;99.90
51733;DHT22;39139;53.144;6.244;2022-12-15T14:35:38;3.40;99.90
51733;DHT22;39139;53.144;6.244;2022-12-15T14:38:07;3.40;99.90
51733;DHT22;39139;53.144;6.244;2022-12-15T14:40:36;3.40;99.90
51733;DHT22;39139;53.144;6.244;2022-12-15T14:43:07;3.50;99.90
51733;DHT22;39139;53.144;6.244;2022-12-15T14:45:34;3.30;99.90
51733;DHT22;39139;53.144;6.244;2022-12-15T14:48:06;3.20;99.90
51733;DHT22;39139;53.144;6.244;2022-12-15T14:50:32;3.40;99.90
51733;DHT22;39139;53.144;6.244;2022-12-15T14:53:04;3.30;99.90
51733;DHT22;39139;53.144;6.244;2022-12-15T14:57:57;3.10;99.90
51733;DHT22;39139;53.144;6.244;2022-12-15T15:05:41;3.30;99.90
51733;DHT22;39139;53.144;6.244;2022-12-15T15:08:17;2.90;99.90
51733;DHT22;39139;53.144;6.244;2022-12-15T15:10:44;2.80;99.90
51733;DHT22;39139;53.144;6.244;2022-12-15T15:13:22;3.10;99.90
51733;DHT22;39139;53.144;6.244;2022-12-15T15:15:55;4.10;99.90
51733;DHT22;39139;53.144;6.244;2022-12-15T15:18:23;3.40;99.90
51733;DHT22;39139;53.144;6.244;2022-12-15T15:21:03;2.30;99.90
51733;DHT22;39139;53.144;6.244;2022-12-15T15:23:29;2.60;99.90
51733;DHT22;39139;53.144;6.244;2022-12-15T15:25:57;2.60;99.90
51733;DHT22;39139;53.144;6.244;2022-12-15T15:28:42;2.50;99.90
51733;DHT22;39139;53.144;6.244;2022-12-15T15:33:50;2.20;99.90
51733;DHT22;39139;53.144;6.244;2022-12-15T15:36:16;1.90;99.90
51733;DHT22;39139;53.144;6.244;2022-12-15T15:38:42;2.10;99.90
51733;DHT22;39139;53.144;6.244;2022-12-15T15:43:39;2.20;99.90
51733;DHT22;39139;53.144;6.244;2022-12-15T15:46:32;1.90;99.90
51733;DHT22;39139;53.144;6.244;2022-12-15T15:49:01;2.00;99.90
51733;DHT22;39139;53.144;6.244;2022-12-15T15:51:32;2.00;99.90
51733;DHT22;39139;53.144;6.244;2022-12-15T15:54:07;2.00;99.90
51733;DHT22;39139;53.144;6.244;2022-12-15T15:56:35;2.10;99.90
51733;DHT22;39139;53.144;6.244;2022-12-15T15:59:21;1.90;99.90
51733;DHT22;39139;53.144;6.244;2022-12-15T16:01:51;1.80;99.90
51733;DHT22;39139;53.144;6.244;2022-12-15T16:04:19;1.80;99.90
51733;DHT22;39139;53.144;6.244;2022-12-15T16:06:44;2.00;99.90
51733;DHT22;39139;53.144;6.244;2022-12-15T16:09:11;1.90;99.90
51733;DHT22;39139;53.144;6.244;2022-12-15T16:11:39;2.50;99.90
51733;DHT22;39139;53.144;6.244;2022-12-15T16:14:10;1.70;99.90
51733;DHT22;39139;53.144;6.244;2022-12-15T16:16:36;2.00;99.90
51733;DHT22;39139;53.144;6.244;2022-12-15T16:19:02;1.60;99.90
51733;DHT22;39139;53.144;6.244;2022-12-15T16:21:29;1.60;99.90
51733;DHT22;39139;53.144;6.244;2022-12-15T16:23:55;1.80;99.90
51733;DHT22;39139;53.144;6.244;2022-12-15T16:26:31;1.70;99.90
51733;DHT22;39139;53.144;6.244;2022-12-15T16:28:58;1.40;99.90
51733;DHT22;39139;53.144;6.244;2022-12-15T16:31:34;2.00;99.90
51733;DHT22;39139;53.144;6.244;2022-12-15T16:34:04;1.50;99.90
51733;DHT22;39139;53.144;6.244;2022-12-15T16:36:32;1.60;99.90
51733;DHT22;39139;53.144;6.244;2022-12-15T16:38:58;1.50;99.90
51733;DHT22;39139;53.144;6.244;2022-12-15T16:41:23;1.50;99.90
51733;DHT22;39139;53.144;6.244;2022-12-15T16:43:52;1.50;99.90
51733;DHT22;39139;53.144;6.244;2022-12-15T16:46:18;1.80;99.90
51733;DHT22;39139;53.144;6.244;2022-12-15T16:48:44;1.10;99.90
51733;DHT22;39139;53.144;6.244;2022-12-15T16:51:27;1.10;99.90
51733;DHT22;39139;53.144;6.244;2022-12-15T16:53:55;1.40;99.90
51733;DHT22;39139;53.144;6.244;2022-12-15T16:56:21;1.30;99.90
51733;DHT22;39139;53.144;6.244;2022-12-15T16:58:47;1.20;99.90
51733;DHT22;39139;53.144;6.244;2022-12-15T17:01:12;1.00;99.90
51733;DHT22;39139;53.144;6.244;2022-12-15T17:03:40;1.10;99.90
51733;DHT22;39139;53.144;6.244;2022-12-15T17:06:07;1.50;99.90
51733;DHT22;39139;53.144;6.244;2022-12-15T17:11:13;1.00;99.90
51733;DHT22;39139;53.144;6.244;2022-12-15T17:13:43;1.00;99.90
51733;DHT22;39139;53.144;6.244;2022-12-15T17:16:12;1.00;99.90
51733;DHT22;39139;53.144;6.244;2022-12-15T17:18:39;1.00;99.90
51733;DHT22;39139;53.144;6.244;2022-12-15T17:23:44;1.00;99.90
51733;DHT22;39139;53.144;6.244;2022-12-15T17:26:29;1.00;99.90
51733;DHT22;39139;53.144;6.244;2022-12-15T17:28:58;1.10;99.90
51733;DHT22;39139;53.144;6.244;2022-12-15T17:31:25;1.00;99.90
51733;DHT22;39139;53.144;6.244;2022-12-15T17:33:51;1.10;99.90
51733;DHT22;39139;53.144;6.244;2022-12-15T17:36:22;1.40;99.90
51733;DHT22;39139;53.144;6.244;2022-12-15T17:38:55;1.10;99.90
51733;DHT22;39139;53.144;6.244;2022-12-15T17:41:21;0.90;99.90
51733;DHT22;39139;53.144;6.244;2022-12-15T17:43:47;1.00;99.90
51733;DHT22;39139;53.144;6.244;2022-12-15T17:46:13;1.40;99.90
51733;DHT22;39139;53.144;6.244;2022-12-15T17:48:39;0.80;99.90
51733;DHT22;39139;53.144;6.244;2022-12-15T17:51:15;1.00;99.90
51733;DHT22;39139;53.144;6.244;2022-12-15T17:53:46;0.80;99.90
51733;DHT22;39139;53.144;6.244;2022-12-15T17:56:15;0.90;99.90
51733;DHT22;39139;53.144;6.244;2022-12-15T17:58:42;0.80;99.90
51733;DHT22;39139;53.144;6.244;2022-12-15T18:01:12;0.90;99.90
51733;DHT22;39139;53.144;6.244;2022-12-15T18:03:38;0.80;99.90
51733;DHT22;39139;53.144;6.244;2022-12-15T18:06:09;0.90;99.90
51733;DHT22;39139;53.144;6.244;2022-12-15T18:08:35;0.80;99.90
51733;DHT22;39139;53.144;6.244;2022-12-15T18:11:04;0.70;99.90
51733;DHT22;39139;53.144;6.244;2022-12-15T18:13:31;0.80;99.90
51733;DHT22;39139;53.144;6.244;2022-12-15T18:15:57;0.80;99.90
51733;DHT22;39139;53.144;6.244;2022-12-15T18:18:23;0.80;99.90
51733;DHT22;39139;53.144;6.244;2022-12-15T18:20:53;0.50;99.90
51733;DHT22;39139;53.144;6.244;2022-12-15T18:23:23;0.60;99.90
51733;DHT22;39139;53.144;6.244;2022-12-15T18:25:50;0.90;99.90
51733;DHT22;39139;53.144;6.244;2022-12-15T18:28:22;0.70;99.90
51733;DHT22;39139;53.144;6.244;2022-12-15T18:30:51;0.90;99.90
51733;DHT22;39139;53.144;6.244;2022-12-15T18:33:17;0.70;99.90
51733;DHT22;39139;53.144;6.244;2022-12-15T18:35:45;0.60;99.90
51733;DHT22;39139;53.144;6.244;2022-12-15T18:38:15;0.90;99.90
51733;DHT22;39139;53.144;6.244;2022-12-15T18:40:43;0.40;99.90
51733;DHT22;39139;53.144;6.244;2022-12-15T18:43:15;0.90;99.90
51733;DHT22;39139;53.144;6.244;2022-12-15T18:45:42;0.70;99.90
51733;DHT22;39139;53.144;6.244;2022-12-15T18:48:28;1.00;99.90
51733;DHT22;39139;53.144;6.244;2022-12-15T18:50:56;0.40;99.90
51733;DHT22;39139;53.144;6.244;2022-12-15T18:53:26;0.50;99.90
51733;DHT22;39139;53.144;6.244;2022-12-15T18:55:52;0.50;99.90
51733;DHT22;39139;53.144;6.244;2022-12-15T18:58:24;0.20;99.90
51733;DHT22;39139;53.144;6.244;2022-12-15T19:00:53;0.50;99.90
51733;DHT22;39139;53.144;6.244;2022-12-15T19:03:19;0.40;99.90
51733;DHT22;39139;53.144;6.244;2022-12-15T19:05:46;0.20;99.90
51733;DHT22;39139;53.144;6.244;2022-12-15T19:08:16;0.30;99.90
51733;DHT22;39139;53.144;6.244;2022-12-15T19:13:17;0.10;99.90
51733;DHT22;39139;53.144;6.244;2022-12-15T19:15:43;0.10;99.90
51733;DHT22;39139;53.144;6.244;2022-12-15T19:18:13;0.40;99.90
51733;DHT22;39139;53.144;6.244;2022-12-15T19:20:58;-0.10;99.90
51733;DHT22;39139;53.144;6.244;2022-12-15T19:23:42;-0.20;99.90
51733;DHT22;39139;53.144;6.244;2022-12-15T19:26:09;0.00;99.90
51733;DHT22;39139;53.144;6.244;2022-12-15T19:28:35;-0.20;99.90
51733;DHT22;39139;53.144;6.244;2022-12-15T19:31:01;-0.30;99.90
51733;DHT22;39139;53.144;6.244;2022-12-15T19:33:27;-0.40;99.90
51733;DHT22;39139;53.144;6.244;2022-12-15T19:35:52;-0.10;99.90
51733;DHT22;39139;53.144;6.244;2022-12-15T19:38:26;-0.20;99.90
51733;DHT22;39139;53.144;6.244;2022-12-15T19:40:52;-0.40;99.90
51733;DHT22;39139;53.144;6.244;2022-12-15T19:43:20;-0.30;99.90
51733;DHT22;39139;53.144;6.244;2022-12-15T19:45:46;-0.50;99.90
51733;DHT22;39139;53.144;6.244;2022-12-15T19:48:12;-0.40;99.90
51733;DHT22;39139;53.144;6.244;2022-12-15T19:50:39;-0.30;99.90
51733;DHT22;39139;53.144;6.244;2022-12-15T19:53:12;-0.30;99.90
51733;DHT22;39139;53.144;6.244;2022-12-15T19:55:39;-0.60;99.90
51733;DHT22;39139;53.144;6.244;2022-12-15T19:58:27;-0.40;99.90
51733;DHT22;39139;53.144;6.244;2022-12-15T20:00:56;-0.60;99.90
51733;DHT22;39139;53.144;6.244;2022-12-15T20:03:22;-0.40;99.90
51733;DHT22;39139;53.144;6.244;2022-12-15T20:05:49;-0.10;99.90
51733;DHT22;39139;53.144;6.244;2022-12-15T20:08:22;-0.40;99.90
51733;DHT22;39139;53.144;6.244;2022-12-15T20:10:49;-0.30;99.90
51733;DHT22;39139;53.144;6.244;2022-12-15T20:13:15;-0.20;99.90
51733;DHT22;39139;53.144;6.244;2022-12-15T20:15:41;-0.40;99.90
51733;DHT22;39139;53.144;6.244;2022-12-15T20:18:08;-0.10;99.90
51733;DHT22;39139;53.144;6.244;2022-12-15T20:20:34;-0.40;99.90
51733;DHT22;39139;53.144;6.244;2022-12-15T20:23:03;-0.50;99.90
51733;DHT22;39139;53.144;6.244;2022-12-15T20:25:33;-0.20;99.90
51733;DHT22;39139;53.144;6.244;2022-12-15T20:28:00;-0.40;99.90
51733;DHT22;39139;53.144;6.244;2022-12-15T20:30:31;-0.40;99.90
51733;DHT22;39139;53.144;6.244;2022-12-15T20:32:58;-0.50;99.90
51733;DHT22;39139;53.144;6.244;2022-12-15T20:35:25;-0.60;99.90
51733;DHT22;39139;53.144;6.244;2022-12-15T20:37:51;-0.50;99.90
51733;DHT22;39139;53.144;6.244;2022-12-15T20:40:25;0.10;99.90
51733;DHT22;39139;53.144;6.244;2022-12-15T20:42:53;-0.30;99.90
51733;DHT22;39139;53.144;6.244;2022-12-15T20:45:22;-0.60;99.90
51733;DHT22;39139;53.144;6.244;2022-12-15T20:47:50;-0.50;99.90
51733;DHT22;39139;53.144;6.244;2022-12-15T20:50:35;-0.30;99.90
51733;DHT22;39139;53.144;6.244;2022-12-15T20:53:02;-0.40;99.90
51733;DHT22;39139;53.144;6.244;2022-12-15T20:55:29;-0.60;99.90
51733;DHT22;39139;53.144;6.244;2022-12-15T20:57:55;-0.80;99.90
51733;DHT22;39139;53.144;6.244;2022-12-15T21:00:21;-0.70;99.90
51733;DHT22;39139;53.144;6.244;2022-12-15T21:02:47;-0.60;99.90
51733;DHT22;39139;53.144;6.244;2022-12-15T21:05:18;-0.70;99.90
51733;DHT22;39139;53.144;6.244;2022-12-15T21:07:45;-0.80;99.90
51733;DHT22;39139;53.144;6.244;2022-12-15T21:10:12;-0.70;99.90
51733;DHT22;39139;53.144;6.244;2022-12-15T21:12:40;-0.80;99.90
51733;DHT22;39139;53.144;6.244;2022-12-15T21:15:21;-0.90;99.90
51733;DHT22;39139;53.144;6.244;2022-12-15T21:17:51;-0.90;99.90
51733;DHT22;39139;53.144;6.244;2022-12-15T21:20:17;-0.80;99.90
51733;DHT22;39139;53.144;6.244;2022-12-15T21:22:43;-0.80;99.90
51733;DHT22;39139;53.144;6.244;2022-12-15T21:25:23;-0.70;99.90
51733;DHT22;39139;53.144;6.244;2022-12-15T21:27:50;-0.70;99.90
51733;DHT22;39139;53.144;6.244;2022-12-15T21:30:18;-0.60;99.90
51733;DHT22;39139;53.144;6.244;2022-12-15T21:32:48;-0.40;99.90
51733;DHT22;39139;53.144;6.244;2022-12-15T21:35:15;-0.30;99.90
51733;DHT22;39139;53.144;6.244;2022-12-15T21:37:43;-0.30;99.90
51733;DHT22;39139;53.144;6.244;2022-12-15T21:40:18;-0.10;99.90
51733;DHT22;39139;53.144;6.244;2022-12-15T21:42:44;-0.50;99.90
51733;DHT22;39139;53.144;6.244;2022-12-15T21:45:19;-0.30;99.90
51733;DHT22;39139;53.144;6.244;2022-12-15T21:47:45;-0.30;99.90
51733;DHT22;39139;53.144;6.244;2022-12-15T21:50:41;-0.50;99.90
51733;DHT22;39139;53.144;6.244;2022-12-15T21:53:10;-0.50;99.90
51733;DHT22;39139;53.144;6.244;2022-12-15T21:55:40;-0.40;99.90
51733;DHT22;39139;53.144;6.244;2022-12-15T21:58:17;-0.60;99.90
51733;DHT22;39139;53.144;6.244;2022-12-15T22:00:43;-0.40;99.90
51733;DHT22;39139;53.144;6.244;2022-12-15T22:03:09;-0.50;99.90
51733;DHT22;39139;53.144;6.244;2022-12-15T22:05:35;-0.40;99.90
51733;DHT22;39139;53.144;6.244;2022-12-15T22:08:17;-0.60;99.90
51733;DHT22;39139;53.144;6.244;2022-12-15T22:10:44;-0.10;99.90
51733;DHT22;39139;53.144;6.244;2022-12-15T22:13:17;-0.10;99.90
51733;DHT22;39139;53.144;6.244;2022-12-15T22:15:44;-0.50;99.90
51733;DHT22;39139;53.144;6.244;2022-12-15T22:18:12;0.30;99.90
51733;DHT22;39139;53.144;6.244;2022-12-15T22:20:53;-0.10;99.90
51733;DHT22;39139;53.144;6.244;2022-12-15T22:23:19;-1.00;99.90
51733;DHT22;39139;53.144;6.244;2022-12-15T22:25:46;-0.50;99.90
51733;DHT22;39139;53.144;6.244;2022-12-15T22:28:19;-0.40;99.90
51733;DHT22;39139;53.144;6.244;2022-12-15T22:30:46;-0.30;99.90
51733;DHT22;39139;53.144;6.244;2022-12-15T22:33:17;-0.50;99.90
51733;DHT22;39139;53.144;6.244;2022-12-15T22:35:54;-0.30;99.90
51733;DHT22;39139;53.144;6.244;2022-12-15T22:38:21;-0.30;99.90
51733;DHT22;39139;53.144;6.244;2022-12-15T22:40:50;-0.20;99.90
51733;DHT22;39139;53.144;6.244;2022-12-15T22:43:37;-0.20;99.90
51733;DHT22;39139;53.144;6.244;2022-12-15T22:46:05;-0.30;99.90
51733;DHT22;39139;53.144;6.244;2022-12-15T22:48:34;-0.10;99.90
51733;DHT22;39139;53.144;6.244;2022-12-15T22:51:02;-0.20;99.90
51733;DHT22;39139;53.144;6.244;2022-12-15T22:53:30;-0.10;99.90
51733;DHT22;39139;53.144;6.244;2022-12-15T22:55:57;-0.30;99.90
51733;DHT22;39139;53.144;6.244;2022-12-15T22:58:36;-0.20;99.90
51733;DHT22;39139;53.144;6.244;2022-12-15T23:01:04;-0.50;99.90
51733;DHT22;39139;53.144;6.244;2022-12-15T23:03:31;-0.40;99.90
51733;DHT22;39139;53.144;6.244;2022-12-15T23:05:59;-0.20;99.90
51733;DHT22;39139;53.144;6.244;2022-12-15T23:08:27;-0.10;99.90
51733;DHT22;39139;53.144;6.244;2022-12-15T23:10:52;-0.10;99.90
51733;DHT22;39139;53.144;6.244;2022-12-15T23:13:37;-0.20;99.90
51733;DHT22;39139;53.144;6.244;2022-12-15T23:16:03;-0.10;99.90
51733;DHT22;39139;53.144;6.244;2022-12-15T23:18:50;-0.10;99.90
51733;DHT22;39139;53.144;6.244;2022-12-15T23:21:17;-0.10;99.90
51733;DHT22;39139;53.144;6.244;2022-12-15T23:23:43;-0.10;99.90
51733;DHT22;39139;53.144;6.244;2022-12-15T23:26:09;-0.10;99.90
51733;DHT22;39139;53.144;6.244;2022-12-15T23:28:35;-0.20;99.90
51733;DHT22;39139;53.144;6.244;2022-12-15T23:31:01;-0.10;99.90
51733;DHT22;39139;53.144;6.244;2022-12-15T23:33:27;0.20;99.90
51733;DHT22;39139;53.144;6.244;2022-12-15T23:35:58;0.10;99.90
51733;DHT22;39139;53.144;6.244;2022-12-15T23:38:24;0.20;99.90
51733;DHT22;39139;53.144;6.244;2022-12-15T23:40:51;0.30;99.90
51733;DHT22;39139;53.144;6.244;2022-12-15T23:43:18;0.30;99.90
51733;DHT22;39139;53.144;6.244;2022-12-15T23:45:44;0.30;99.90
51733;DHT22;39139;53.144;6.244;2022-12-15T23:48:12;0.30;99.90
51733;DHT22;39139;53.144;6.244;2022-12-15T23:50:38;0.40;99.90
51733;DHT22;39139;53.144;6.244;2022-12-15T23:53:04;0.30;99.90
51733;DHT22;39139;53.144;6.244;2022-12-15T23:55:33;0.50;99.90
51733;DHT22;39139;53.144;6.244;2022-12-15T23:57:59;0.90;99.90
